EDT,Max TemperatureF,Mean TemperatureF,Min TemperatureF,Max Dew PointF,MeanDew PointF,Min DewpointF,Max Humidity, Mean Humidity, Min Humidity, Max Sea Level PressureIn, Mean Sea Level PressureIn, Min Sea Level PressureIn, Max VisibilityMiles, Mean VisibilityMiles, Min VisibilityMiles, Max Wind SpeedMPH, Mean Wind SpeedMPH, Max Gust SpeedMPH,PrecipitationIn, CloudCover, Events, WindDirDegrees
2013-9-1,87,76,64,73,70,64,100,89,58,29.94,29.90,29.82,10,6,0,12,2,17,0.16,4,Fog-Rain,224
2013-9-2,86,77,68,73,70,68,100,86,55,29.92,29.88,29.84,10,8,2,8,2,,0.01,2,,236
2013-9-3,86,76,66,73,70,66,100,84,55,29.98,29.89,29.84,10,7,0,7,1,,0.07,1,Fog-Rain,338
2013-9-4,80,70,60,70,64,61,100,84,54,30.14,30.08,29.99,10,8,0,9,2,,0.00,3,Fog,34
2013-9-5,82,70,57,68,61,54,100,79,37,30.14,30.11,30.07,10,7,0,6,1,,0.00,0,Fog,296
2013-9-6,78,68,59,63,57,54,100,71,44,30.23,30.18,30.13,10,10,2,9,3,,0.00,1,,24
2013-9-7,78,66,53,64,59,54,100,82,54,30.18,30.10,30.01,10,8,1,7,1,,0.00,1,,221
2013-9-8,84,70,57,70,62,55,100,80,42,30.03,29.99,29.95,10,7,1,7,1,,0.00,0,,8
2013-9-9,86,74,62,70,66,63,100,83,48,30.19,30.13,30.03,10,7,1,8,1,,0.00,3,,65
2013-9-10,87,74,62,72,67,63,100,83,46,30.27,30.22,30.18,10,6,0,7,1,,0.00,1,Fog,231
2013-9-11,87,74,62,70,67,63,100,81,46,30.24,30.18,30.10,10,7,0,12,2,18,0.00,1,Fog,214
2013-9-12,87,76,64,72,69,64,100,84,55,30.10,29.97,29.85,10,9,2,12,2,17,0.00,2,,225
2013-9-13,82,70,59,68,59,50,100,67,34,29.95,29.84,29.80,10,10,4,10,2,18,0.00,3,,326
2013-9-14,73,62,51,54,49,45,100,67,41,30.18,30.07,29.95,10,10,10,13,4,18,0.00,3,,22
2013-9-15,77,60,44,61,54,45,100,80,44,30.27,30.21,30.16,10,9,2,8,1,,0.00,1,,207
2013-9-16,82,70,57,70,62,57,100,78,45,30.24,30.16,30.10,10,9,5,14,3,20,0.00,5,,342
2013-9-17,73,62,50,59,52,46,100,73,38,30.37,30.31,30.25,10,10,4,13,4,22,0.00,2,,48
2013-9-18,71,56,42,52,46,37,100,75,29,30.35,30.29,30.21,10,9,2,7,1,,0.00,0,,49
2013-9-19,73,62,50,63,56,50,100,84,53,30.23,30.18,30.12,10,10,10,5,1,,0.00,6,,177
2013-9-20,69,64,60,64,63,61,100,94,83,30.13,30.07,30.00,10,10,4,7,1,,0.23,8,Rain,168
2013-9-21,73,68,62,70,66,63,100,96,78,30.00,29.87,29.76,10,8,1,10,2,,0.43,8,Rain,185
2013-9-22,75,64,53,63,59,54,100,84,47,29.94,29.84,29.76,10,10,4,13,3,20,0.00,5,,16
2013-9-23,69,60,50,55,51,46,100,76,49,30.10,30.05,29.94,10,9,0,14,3,20,0.00,4,Fog,23
2013-9-24,73,60,48,61,54,48,100,83,53,30.14,30.06,29.98,10,9,1,6,1,,0.00,4,,83
2013-9-25,71,58,46,63,56,46,100,91,57,30.00,29.95,29.91,10,7,0,7,1,,0.00,6,Fog-Rain,340
2013-9-26,71,61,51,61,56,50,100,82,46,30.08,29.99,29.92,10,10,5,9,2,16,0.00,5,,15
2013-9-27,71,58,44,59,52,45,100,83,46,30.23,30.16,30.08,10,9,1,13,2,16,0.00,2,,46
2013-9-28,68,56,44,55,51,45,100,84,56,30.30,30.24,30.21,10,9,1,12,2,17,0.00,3,,25
2013-9-29,71,58,44,61,50,45,100,82,41,30.22,30.15,30.07,10,8,0,10,1,,0.00,3,Fog,27
2013-9-30,73,60,46,59,52,46,100,84,47,30.13,30.09,30.03,10,9,0,5,0,,0.00,1,Fog,24